sensor_id;sensor_type;location;lat;lon;timestamp;temperature;humidity
60039;DHT22;45916;52.734;6.544;2022-12-07T00:01:22;2.90;99.90
60039;DHT22;45916;52.734;6.544;2022-12-07T00:03:51;2.90;99.90
60039;DHT22;45916;52.734;6.544;2022-12-07T00:06:17;2.80;99.90
60039;DHT22;45916;52.734;6.544;2022-12-07T00:08:44;2.80;99.90
60039;DHT22;45916;52.734;6.544;2022-12-07T00:11:19;2.80;99.90
60039;DHT22;45916;52.734;6.544;2022-12-07T00:13:45;2.80;99.90
60039;DHT22;45916;52.734;6.544;2022-12-07T00:16:14;2.70;99.90
60039;DHT22;45916;52.734;6.544;2022-12-07T00:18:40;2.70;99.90
60039;DHT22;45916;52.734;6.544;2022-12-07T00:21:15;2.70;99.90
60039;DHT22;45916;52.734;6.544;2022-12-07T00:23:42;2.70;99.90
60039;DHT22;45916;52.734;6.544;2022-12-07T00:26:19;2.70;99.90
60039;DHT22;45916;52.734;6.544;2022-12-07T00:28:51;2.70;99.90
60039;DHT22;45916;52.734;6.544;2022-12-07T00:31:18;2.70;99.90
60039;DHT22;45916;52.734;6.544;2022-12-07T00:33:44;2.60;99.90
60039;DHT22;45916;52.734;6.544;2022-12-07T00:36:14;2.60;99.90
60039;DHT22;45916;52.734;6.544;2022-12-07T00:38:40;2.60;99.90
60039;DHT22;45916;52.734;6.544;2022-12-07T00:41:16;2.60;99.90
60039;DHT22;45916;52.734;6.544;2022-12-07T00:43:43;2.60;99.90
60039;DHT22;45916;52.734;6.544;2022-12-07T00:46:09;2.60;99.90
60039;DHT22;45916;52.734;6.544;2022-12-07T00:48:36;2.70;99.90
60039;DHT22;45916;52.734;6.544;2022-12-07T00:51:02;2.70;99.90
60039;DHT22;45916;52.734;6.544;2022-12-07T00:53:28;2.70;99.90
60039;DHT22;45916;52.734;6.544;2022-12-07T00:55:54;2.90;99.90
60039;DHT22;45916;52.734;6.544;2022-12-07T00:58:21;2.90;99.90
60039;DHT22;45916;52.734;6.544;2022-12-07T01:00:47;3.00;99.90
60039;DHT22;45916;52.734;6.544;2022-12-07T01:03:14;3.00;99.90
60039;DHT22;45916;52.734;6.544;2022-12-07T01:05:40;3.00;99.90
60039;DHT22;45916;52.734;6.544;2022-12-07T01:08:13;3.00;99.90
60039;DHT22;45916;52.734;6.544;2022-12-07T01:10:39;3.00;99.90
60039;DHT22;45916;52.734;6.544;2022-12-07T01:13:05;3.00;99.90
60039;DHT22;45916;52.734;6.544;2022-12-07T01:15:30;3.10;99.90
60039;DHT22;45916;52.734;6.544;2022-12-07T01:17:56;3.10;99.90
60039;DHT22;45916;52.734;6.544;2022-12-07T01:20:22;3.20;99.90
60039;DHT22;45916;52.734;6.544;2022-12-07T01:22:48;3.20;99.90
60039;DHT22;45916;52.734;6.544;2022-12-07T01:25:13;3.20;99.90
60039;DHT22;45916;52.734;6.544;2022-12-07T01:27:39;3.30;99.90
60039;DHT22;45916;52.734;6.544;2022-12-07T01:30:06;3.40;99.90
60039;DHT22;45916;52.734;6.544;2022-12-07T01:32:32;3.50;99.90
60039;DHT22;45916;52.734;6.544;2022-12-07T01:34:58;3.60;99.90
60039;DHT22;45916;52.734;6.544;2022-12-07T01:37:24;3.60;99.90
60039;DHT22;45916;52.734;6.544;2022-12-07T01:39:51;3.60;99.90
60039;DHT22;45916;52.734;6.544;2022-12-07T01:42:17;3.50;99.90
60039;DHT22;45916;52.734;6.544;2022-12-07T01:47:50;3.40;99.90
60039;DHT22;45916;52.734;6.544;2022-12-07T01:50:19;3.30;99.90
60039;DHT22;45916;52.734;6.544;2022-12-07T01:52:46;3.30;99.90
60039;DHT22;45916;52.734;6.544;2022-12-07T01:55:15;3.30;99.90
60039;DHT22;45916;52.734;6.544;2022-12-07T01:57:45;3.30;99.90
60039;DHT22;45916;52.734;6.544;2022-12-07T02:00:12;3.20;99.90
60039;DHT22;45916;52.734;6.544;2022-12-07T02:05:14;3.00;99.90
60039;DHT22;45916;52.734;6.544;2022-12-07T02:07:40;2.90;99.90
60039;DHT22;45916;52.734;6.544;2022-12-07T02:10:24;2.90;99.90
60039;DHT22;45916;52.734;6.544;2022-12-07T02:13:15;2.80;99.90
60039;DHT22;45916;52.734;6.544;2022-12-07T02:18:32;2.70;99.90
60039;DHT22;45916;52.734;6.544;2022-12-07T02:32:53;2.60;99.90
60039;DHT22;45916;52.734;6.544;2022-12-07T02:38:02;2.50;99.90
60039;DHT22;45916;52.734;6.544;2022-12-07T02:40:40;2.40;99.90
60039;DHT22;45916;52.734;6.544;2022-12-07T02:43:28;2.30;99.90
60039;DHT22;45916;52.734;6.544;2022-12-07T02:46:01;2.30;99.90
60039;DHT22;45916;52.734;6.544;2022-12-07T02:48:29;2.20;99.90
60039;DHT22;45916;52.734;6.544;2022-12-07T02:50:57;2.20;99.90
60039;DHT22;45916;52.734;6.544;2022-12-07T02:53:48;2.20;99.90
60039;DHT22;45916;52.734;6.544;2022-12-07T03:15:20;3.00;99.90
60039;DHT22;45916;52.734;6.544;2022-12-07T03:17:49;3.00;99.90
60039;DHT22;45916;52.734;6.544;2022-12-07T03:20:16;3.00;99.90
60039;DHT22;45916;52.734;6.544;2022-12-07T03:22:44;3.00;99.90
60039;DHT22;45916;52.734;6.544;2022-12-07T03:25:14;3.00;99.90
60039;DHT22;45916;52.734;6.544;2022-12-07T03:30:18;2.90;99.90
60039;DHT22;45916;52.734;6.544;2022-12-07T03:33:01;2.70;99.90
60039;DHT22;45916;52.734;6.544;2022-12-07T03:35:34;2.70;99.90
60039;DHT22;45916;52.734;6.544;2022-12-07T03:38:17;2.60;99.90
60039;DHT22;45916;52.734;6.544;2022-12-07T03:41:00;2.60;99.90
60039;DHT22;45916;52.734;6.544;2022-12-07T03:43:30;2.60;99.90
60039;DHT22;45916;52.734;6.544;2022-12-07T03:51:56;2.70;99.90
60039;DHT22;45916;52.734;6.544;2022-12-07T03:57:28;2.60;99.90
60039;DHT22;45916;52.734;6.544;2022-12-07T03:59:55;2.40;99.90
60039;DHT22;45916;52.734;6.544;2022-12-07T04:02:23;2.40;99.90
60039;DHT22;45916;52.734;6.544;2022-12-07T04:04:50;2.40;99.90
60039;DHT22;45916;52.734;6.544;2022-12-07T04:07:16;2.40;99.90
60039;DHT22;45916;52.734;6.544;2022-12-07T04:09:41;2.30;99.90
60039;DHT22;45916;52.734;6.544;2022-12-07T04:12:07;2.20;99.90
60039;DHT22;45916;52.734;6.544;2022-12-07T04:14:33;2.10;99.90
60039;DHT22;45916;52.734;6.544;2022-12-07T04:16:59;2.10;99.90
60039;DHT22;45916;52.734;6.544;2022-12-07T04:19:30;2.10;99.90
60039;DHT22;45916;52.734;6.544;2022-12-07T04:21:58;2.00;99.90
60039;DHT22;45916;52.734;6.544;2022-12-07T04:24:24;2.00;99.90
60039;DHT22;45916;52.734;6.544;2022-12-07T04:26:50;1.90;99.90
60039;DHT22;45916;52.734;6.544;2022-12-07T04:29:17;1.90;99.90
60039;DHT22;45916;52.734;6.544;2022-12-07T04:31:43;1.80;99.90
60039;DHT22;45916;52.734;6.544;2022-12-07T04:34:09;1.80;99.90
60039;DHT22;45916;52.734;6.544;2022-12-07T04:36:36;1.70;99.90
60039;DHT22;45916;52.734;6.544;2022-12-07T04:39:02;1.70;99.90
60039;DHT22;45916;52.734;6.544;2022-12-07T04:41:28;1.70;99.90
60039;DHT22;45916;52.734;6.544;2022-12-07T04:43:54;1.70;99.90
60039;DHT22;45916;52.734;6.544;2022-12-07T04:46:20;1.70;99.90
60039;DHT22;45916;52.734;6.544;2022-12-07T04:48:46;1.60;99.90
60039;DHT22;45916;52.734;6.544;2022-12-07T04:51:12;1.60;99.90
60039;DHT22;45916;52.734;6.544;2022-12-07T04:53:38;1.70;99.90
60039;DHT22;45916;52.734;6.544;2022-12-07T04:56:04;1.80;99.90
60039;DHT22;45916;52.734;6.544;2022-12-07T04:58:29;2.00;99.90
60039;DHT22;45916;52.734;6.544;2022-12-07T05:00:55;2.10;99.90
60039;DHT22;45916;52.734;6.544;2022-12-07T05:03:21;2.20;99.90
60039;DHT22;45916;52.734;6.544;2022-12-07T05:05:46;2.20;99.90
60039;DHT22;45916;52.734;6.544;2022-12-07T05:08:12;2.40;99.90
60039;DHT22;45916;52.734;6.544;2022-12-07T05:10:37;2.50;99.90
60039;DHT22;45916;52.734;6.544;2022-12-07T05:13:03;2.60;99.90
60039;DHT22;45916;52.734;6.544;2022-12-07T05:15:29;2.60;99.90
60039;DHT22;45916;52.734;6.544;2022-12-07T05:17:54;2.70;99.90
60039;DHT22;45916;52.734;6.544;2022-12-07T05:20:20;2.50;99.90
60039;DHT22;45916;52.734;6.544;2022-12-07T05:22:46;2.50;99.90
60039;DHT22;45916;52.734;6.544;2022-12-07T05:25:11;2.40;99.90
60039;DHT22;45916;52.734;6.544;2022-12-07T05:27:37;2.30;99.90
60039;DHT22;45916;52.734;6.544;2022-12-07T05:30:04;2.20;99.90
60039;DHT22;45916;52.734;6.544;2022-12-07T05:32:29;2.10;99.90
60039;DHT22;45916;52.734;6.544;2022-12-07T05:34:55;2.00;99.90
60039;DHT22;45916;52.734;6.544;2022-12-07T05:37:21;2.00;99.90
60039;DHT22;45916;52.734;6.544;2022-12-07T05:39:46;1.90;99.90
60039;DHT22;45916;52.734;6.544;2022-12-07T05:42:12;1.90;99.90
60039;DHT22;45916;52.734;6.544;2022-12-07T05:44:45;1.80;99.90
60039;DHT22;45916;52.734;6.544;2022-12-07T05:47:12;1.70;99.90
60039;DHT22;45916;52.734;6.544;2022-12-07T05:49:38;1.70;99.90
60039;DHT22;45916;52.734;6.544;2022-12-07T05:52:05;1.70;99.90
60039;DHT22;45916;52.734;6.544;2022-12-07T05:54:31;1.70;99.90
60039;DHT22;45916;52.734;6.544;2022-12-07T05:56:56;1.70;99.90
60039;DHT22;45916;52.734;6.544;2022-12-07T05:59:22;1.80;99.90
60039;DHT22;45916;52.734;6.544;2022-12-07T06:01:50;1.80;99.90
60039;DHT22;45916;52.734;6.544;2022-12-07T06:04:16;1.80;99.90
60039;DHT22;45916;52.734;6.544;2022-12-07T06:06:42;1.90;99.90
60039;DHT22;45916;52.734;6.544;2022-12-07T06:09:08;1.90;99.90
60039;DHT22;45916;52.734;6.544;2022-12-07T06:11:34;2.00;99.90
60039;DHT22;45916;52.734;6.544;2022-12-07T06:14:18;2.10;99.90
60039;DHT22;45916;52.734;6.544;2022-12-07T06:16:44;2.30;99.90
60039;DHT22;45916;52.734;6.544;2022-12-07T06:19:10;2.40;99.90
60039;DHT22;45916;52.734;6.544;2022-12-07T06:21:35;2.50;99.90
60039;DHT22;45916;52.734;6.544;2022-12-07T06:24:01;2.50;99.90
60039;DHT22;45916;52.734;6.544;2022-12-07T06:26:27;2.50;99.90
60039;DHT22;45916;52.734;6.544;2022-12-07T06:28:53;2.50;99.90
60039;DHT22;45916;52.734;6.544;2022-12-07T06:31:18;2.50;99.90
60039;DHT22;45916;52.734;6.544;2022-12-07T06:33:44;2.50;99.90
60039;DHT22;45916;52.734;6.544;2022-12-07T06:36:10;2.60;99.90
60039;DHT22;45916;52.734;6.544;2022-12-07T06:38:36;2.60;99.90
60039;DHT22;45916;52.734;6.544;2022-12-07T06:41:02;2.60;99.90
60039;DHT22;45916;52.734;6.544;2022-12-07T06:43:28;2.60;99.90
60039;DHT22;45916;52.734;6.544;2022-12-07T06:45:53;2.70;99.90
60039;DHT22;45916;52.734;6.544;2022-12-07T06:48:19;2.70;99.90
60039;DHT22;45916;52.734;6.544;2022-12-07T06:50:45;2.80;99.90
60039;DHT22;45916;52.734;6.544;2022-12-07T06:53:11;2.80;99.90
60039;DHT22;45916;52.734;6.544;2022-12-07T06:55:37;2.90;99.90
60039;DHT22;45916;52.734;6.544;2022-12-07T06:58:03;2.90;99.90
60039;DHT22;45916;52.734;6.544;2022-12-07T07:00:29;2.80;99.90
60039;DHT22;45916;52.734;6.544;2022-12-07T07:02:55;2.70;99.90
60039;DHT22;45916;52.734;6.544;2022-12-07T07:05:20;2.70;99.90
60039;DHT22;45916;52.734;6.544;2022-12-07T07:07:49;2.50;99.90
60039;DHT22;45916;52.734;6.544;2022-12-07T07:10:16;2.50;99.90
60039;DHT22;45916;52.734;6.544;2022-12-07T07:12:41;2.50;99.90
60039;DHT22;45916;52.734;6.544;2022-12-07T07:15:07;2.60;99.90
60039;DHT22;45916;52.734;6.544;2022-12-07T07:17:33;2.70;99.90
60039;DHT22;45916;52.734;6.544;2022-12-07T07:19:59;2.80;99.90
60039;DHT22;45916;52.734;6.544;2022-12-07T07:22:24;2.90;99.90
60039;DHT22;45916;52.734;6.544;2022-12-07T07:24:50;2.90;99.90
60039;DHT22;45916;52.734;6.544;2022-12-07T07:27:15;3.00;99.90
60039;DHT22;45916;52.734;6.544;2022-12-07T07:29:42;3.00;99.90
60039;DHT22;45916;52.734;6.544;2022-12-07T07:32:08;3.00;99.90
60039;DHT22;45916;52.734;6.544;2022-12-07T07:34:33;3.10;99.90
60039;DHT22;45916;52.734;6.544;2022-12-07T07:36:59;3.10;99.90
60039;DHT22;45916;52.734;6.544;2022-12-07T07:39:25;3.10;99.90
60039;DHT22;45916;52.734;6.544;2022-12-07T07:41:50;3.10;99.90
60039;DHT22;45916;52.734;6.544;2022-12-07T07:44:16;3.10;99.90
60039;DHT22;45916;52.734;6.544;2022-12-07T07:46:42;3.00;99.90
60039;DHT22;45916;52.734;6.544;2022-12-07T07:49:09;3.00;99.90
60039;DHT22;45916;52.734;6.544;2022-12-07T07:51:36;2.80;99.90
60039;DHT22;45916;52.734;6.544;2022-12-07T07:54:02;2.80;99.90
60039;DHT22;45916;52.734;6.544;2022-12-07T07:56:27;2.70;99.90
60039;DHT22;45916;52.734;6.544;2022-12-07T07:58:53;2.70;99.90
60039;DHT22;45916;52.734;6.544;2022-12-07T08:01:19;2.90;99.90
60039;DHT22;45916;52.734;6.544;2022-12-07T08:03:46;2.90;99.90
60039;DHT22;45916;52.734;6.544;2022-12-07T08:06:12;3.10;99.90
60039;DHT22;45916;52.734;6.544;2022-12-07T08:08:38;3.20;99.90
60039;DHT22;45916;52.734;6.544;2022-12-07T08:11:08;3.30;99.90
60039;DHT22;45916;52.734;6.544;2022-12-07T08:13:34;3.50;99.90
60039;DHT22;45916;52.734;6.544;2022-12-07T08:16:07;3.50;99.90
60039;DHT22;45916;52.734;6.544;2022-12-07T08:18:39;3.60;99.90
60039;DHT22;45916;52.734;6.544;2022-12-07T08:21:06;3.60;99.90
60039;DHT22;45916;52.734;6.544;2022-12-07T08:23:32;3.70;99.90
60039;DHT22;45916;52.734;6.544;2022-12-07T08:26:09;3.70;99.90
60039;DHT22;45916;52.734;6.544;2022-12-07T08:28:35;3.70;99.90
60039;DHT22;45916;52.734;6.544;2022-12-07T08:31:07;3.80;99.90
60039;DHT22;45916;52.734;6.544;2022-12-07T08:33:33;3.80;99.90
60039;DHT22;45916;52.734;6.544;2022-12-07T08:36:03;3.70;99.90
60039;DHT22;45916;52.734;6.544;2022-12-07T08:38:30;3.70;99.90
60039;DHT22;45916;52.734;6.544;2022-12-07T08:40:57;3.70;99.90
60039;DHT22;45916;52.734;6.544;2022-12-07T08:43:23;3.60;99.90
60039;DHT22;45916;52.734;6.544;2022-12-07T08:46:04;3.50;99.90
60039;DHT22;45916;52.734;6.544;2022-12-07T08:48:31;3.50;99.90
60039;DHT22;45916;52.734;6.544;2022-12-07T08:50:58;3.90;99.90
60039;DHT22;45916;52.734;6.544;2022-12-07T08:53:24;4.50;99.90
60039;DHT22;45916;52.734;6.544;2022-12-07T08:55:50;4.70;99.90
60039;DHT22;45916;52.734;6.544;2022-12-07T08:58:16;5.10;99.90
60039;DHT22;45916;52.734;6.544;2022-12-07T09:00:41;5.80;99.90
60039;DHT22;45916;52.734;6.544;2022-12-07T09:03:07;6.20;99.90
60039;DHT22;45916;52.734;6.544;2022-12-07T09:05:33;6.30;99.90
60039;DHT22;45916;52.734;6.544;2022-12-07T09:08:00;6.50;99.90
60039;DHT22;45916;52.734;6.544;2022-12-07T09:10:27;6.40;99.90
60039;DHT22;45916;52.734;6.544;2022-12-07T09:12:53;6.20;99.90
60039;DHT22;45916;52.734;6.544;2022-12-07T09:15:19;6.10;99.90
60039;DHT22;45916;52.734;6.544;2022-12-07T09:17:44;6.00;99.90
60039;DHT22;45916;52.734;6.544;2022-12-07T09:20:10;6.00;99.90
60039;DHT22;45916;52.734;6.544;2022-12-07T09:22:37;6.10;99.90
60039;DHT22;45916;52.734;6.544;2022-12-07T09:25:04;6.10;99.90
60039;DHT22;45916;52.734;6.544;2022-12-07T09:27:30;6.10;99.90
60039;DHT22;45916;52.734;6.544;2022-12-07T09:29:56;6.10;99.90
60039;DHT22;45916;52.734;6.544;2022-12-07T09:32:21;6.10;99.90
60039;DHT22;45916;52.734;6.544;2022-12-07T09:34:47;7.00;99.90
60039;DHT22;45916;52.734;6.544;2022-12-07T09:37:13;6.80;99.90
60039;DHT22;45916;52.734;6.544;2022-12-07T09:39:40;6.40;99.90
60039;DHT22;45916;52.734;6.544;2022-12-07T09:42:06;6.20;99.90
60039;DHT22;45916;52.734;6.544;2022-12-07T09:44:34;7.10;99.90
60039;DHT22;45916;52.734;6.544;2022-12-07T09:47:01;8.60;99.90
60039;DHT22;45916;52.734;6.544;2022-12-07T09:49:30;10.00;99.90
60039;DHT22;45916;52.734;6.544;2022-12-07T09:52:20;11.30;99.90
60039;DHT22;45916;52.734;6.544;2022-12-07T09:54:50;12.50;99.90
60039;DHT22;45916;52.734;6.544;2022-12-07T09:57:18;13.40;99.90
60039;DHT22;45916;52.734;6.544;2022-12-07T09:59:44;13.90;99.90
60039;DHT22;45916;52.734;6.544;2022-12-07T10:04:58;13.00;99.90
60039;DHT22;45916;52.734;6.544;2022-12-07T10:07:24;13.90;99.90
60039;DHT22;45916;52.734;6.544;2022-12-07T10:09:50;13.10;99.90
60039;DHT22;45916;52.734;6.544;2022-12-07T10:12:15;12.20;99.90
60039;DHT22;45916;52.734;6.544;2022-12-07T10:14:55;11.10;99.90
60039;DHT22;45916;52.734;6.544;2022-12-07T10:17:38;10.30;99.90
60039;DHT22;45916;52.734;6.544;2022-12-07T10:20:15;9.60;99.90
60039;DHT22;45916;52.734;6.544;2022-12-07T10:23:05;8.90;99.90
60039;DHT22;45916;52.734;6.544;2022-12-07T10:25:36;8.40;99.90
60039;DHT22;45916;52.734;6.544;2022-12-07T10:28:16;8.00;99.90
60039;DHT22;45916;52.734;6.544;2022-12-07T10:31:26;7.80;99.90
60039;DHT22;45916;52.734;6.544;2022-12-07T10:34:00;7.80;99.90
60039;DHT22;45916;52.734;6.544;2022-12-07T10:36:27;9.10;99.90
60039;DHT22;45916;52.734;6.544;2022-12-07T10:39:01;8.90;99.90
60039;DHT22;45916;52.734;6.544;2022-12-07T10:41:27;8.80;99.90
60039;DHT22;45916;52.734;6.544;2022-12-07T10:43:55;9.90;99.90
60039;DHT22;45916;52.734;6.544;2022-12-07T10:49:07;11.00;99.90
60039;DHT22;45916;52.734;6.544;2022-12-07T10:51:56;11.00;99.90
60039;DHT22;45916;52.734;6.544;2022-12-07T10:54:49;10.70;99.90
60039;DHT22;45916;52.734;6.544;2022-12-07T11:00:16;9.40;99.90
60039;DHT22;45916;52.734;6.544;2022-12-07T11:11:06;8.10;99.90
60039;DHT22;45916;52.734;6.544;2022-12-07T11:22:15;7.60;99.90
60039;DHT22;45916;52.734;6.544;2022-12-07T11:28:24;7.60;99.90
60039;DHT22;45916;52.734;6.544;2022-12-07T11:33:53;7.50;99.90
60039;DHT22;45916;52.734;6.544;2022-12-07T11:36:49;7.50;99.90
60039;DHT22;45916;52.734;6.544;2022-12-07T11:42:33;7.30;99.90
60039;DHT22;45916;52.734;6.544;2022-12-07T11:45:15;7.20;99.90
60039;DHT22;45916;52.734;6.544;2022-12-07T11:50:57;7.00;99.90
60039;DHT22;45916;52.734;6.544;2022-12-07T11:53:45;6.90;99.90
60039;DHT22;45916;52.734;6.544;2022-12-07T11:56:23;6.80;99.90
60039;DHT22;45916;52.734;6.544;2022-12-07T11:58:55;6.80;99.90
60039;DHT22;45916;52.734;6.544;2022-12-07T12:06:24;6.90;99.90
60039;DHT22;45916;52.734;6.544;2022-12-07T12:09:03;6.90;99.90
60039;DHT22;45916;52.734;6.544;2022-12-07T12:11:36;6.80;99.90
60039;DHT22;45916;52.734;6.544;2022-12-07T12:19:42;6.70;99.90
60039;DHT22;45916;52.734;6.544;2022-12-07T12:24:39;6.70;99.90
60039;DHT22;45916;52.734;6.544;2022-12-07T12:27:08;6.80;99.90
60039;DHT22;45916;52.734;6.544;2022-12-07T12:29:42;6.70;99.90
60039;DHT22;45916;52.734;6.544;2022-12-07T12:34:42;6.60;99.90
60039;DHT22;45916;52.734;6.544;2022-12-07T12:42:51;6.70;99.90
60039;DHT22;45916;52.734;6.544;2022-12-07T12:45:25;6.70;99.90
60039;DHT22;45916;52.734;6.544;2022-12-07T12:48:27;6.80;99.90
60039;DHT22;45916;52.734;6.544;2022-12-07T12:54:04;6.90;99.90
60039;DHT22;45916;52.734;6.544;2022-12-07T13:01:47;7.00;99.90
60039;DHT22;45916;52.734;6.544;2022-12-07T13:07:49;7.00;99.90
60039;DHT22;45916;52.734;6.544;2022-12-07T13:10:31;7.00;99.90
60039;DHT22;45916;52.734;6.544;2022-12-07T13:15:42;7.00;99.90
60039;DHT22;45916;52.734;6.544;2022-12-07T13:26:20;6.80;99.90
60039;DHT22;45916;52.734;6.544;2022-12-07T13:28:50;6.80;99.90
60039;DHT22;45916;52.734;6.544;2022-12-07T13:31:30;6.90;99.90
60039;DHT22;45916;52.734;6.544;2022-12-07T13:33:57;6.90;99.90
60039;DHT22;45916;52.734;6.544;2022-12-07T13:36:30;7.00;99.90
60039;DHT22;45916;52.734;6.544;2022-12-07T13:39:15;6.90;99.90
60039;DHT22;45916;52.734;6.544;2022-12-07T13:41:42;6.90;99.90
60039;DHT22;45916;52.734;6.544;2022-12-07T13:44:12;6.90;99.90
60039;DHT22;45916;52.734;6.544;2022-12-07T13:49:33;6.80;99.90
60039;DHT22;45916;52.734;6.544;2022-12-07T13:52:20;6.70;99.90
60039;DHT22;45916;52.734;6.544;2022-12-07T13:54:59;6.40;99.90
60039;DHT22;45916;52.734;6.544;2022-12-07T13:57:28;6.10;99.90
60039;DHT22;45916;52.734;6.544;2022-12-07T13:59:56;5.90;99.90
60039;DHT22;45916;52.734;6.544;2022-12-07T14:02:28;5.80;99.90
60039;DHT22;45916;52.734;6.544;2022-12-07T14:05:27;5.70;99.90
60039;DHT22;45916;52.734;6.544;2022-12-07T14:10:39;5.50;99.90
60039;DHT22;45916;52.734;6.544;2022-12-07T14:13:39;5.50;99.90
60039;DHT22;45916;52.734;6.544;2022-12-07T14:16:24;5.40;99.90
60039;DHT22;45916;52.734;6.544;2022-12-07T14:18:51;5.30;99.90
60039;DHT22;45916;52.734;6.544;2022-12-07T14:21:20;5.20;99.90
60039;DHT22;45916;52.734;6.544;2022-12-07T14:24:09;5.10;99.90
60039;DHT22;45916;52.734;6.544;2022-12-07T14:26:35;5.10;99.90
60039;DHT22;45916;52.734;6.544;2022-12-07T14:31:55;5.00;99.90
60039;DHT22;45916;52.734;6.544;2022-12-07T14:34:21;4.90;99.90
60039;DHT22;45916;52.734;6.544;2022-12-07T14:36:47;4.90;99.90
60039;DHT22;45916;52.734;6.544;2022-12-07T14:39:13;4.80;99.90
60039;DHT22;45916;52.734;6.544;2022-12-07T14:41:39;4.80;99.90
60039;DHT22;45916;52.734;6.544;2022-12-07T14:44:17;4.80;99.90
60039;DHT22;45916;52.734;6.544;2022-12-07T14:46:43;4.80;99.90
60039;DHT22;45916;52.734;6.544;2022-12-07T14:49:09;4.70;99.90
60039;DHT22;45916;52.734;6.544;2022-12-07T14:51:38;4.70;99.90
60039;DHT22;45916;52.734;6.544;2022-12-07T14:54:06;4.70;99.90
60039;DHT22;45916;52.734;6.544;2022-12-07T14:56:36;4.80;99.90
60039;DHT22;45916;52.734;6.544;2022-12-07T14:59:02;4.80;99.90
60039;DHT22;45916;52.734;6.544;2022-12-07T15:01:28;4.80;99.90
60039;DHT22;45916;52.734;6.544;2022-12-07T15:03:53;4.70;99.90
60039;DHT22;45916;52.734;6.544;2022-12-07T15:06:19;4.60;99.90
60039;DHT22;45916;52.734;6.544;2022-12-07T15:08:45;4.60;99.90
60039;DHT22;45916;52.734;6.544;2022-12-07T15:11:15;4.50;99.90
60039;DHT22;45916;52.734;6.544;2022-12-07T15:13:42;4.50;99.90
60039;DHT22;45916;52.734;6.544;2022-12-07T15:16:26;4.50;99.90
60039;DHT22;45916;52.734;6.544;2022-12-07T15:18:52;4.50;99.90
60039;DHT22;45916;52.734;6.544;2022-12-07T15:21:18;4.50;99.90
60039;DHT22;45916;52.734;6.544;2022-12-07T15:23:43;4.50;99.90
60039;DHT22;45916;52.734;6.544;2022-12-07T15:26:11;4.60;99.90
60039;DHT22;45916;52.734;6.544;2022-12-07T15:28:37;4.60;99.90
60039;DHT22;45916;52.734;6.544;2022-12-07T15:31:02;4.60;99.90
60039;DHT22;45916;52.734;6.544;2022-12-07T15:33:28;4.60;99.90
60039;DHT22;45916;52.734;6.544;2022-12-07T15:35:54;4.70;99.90
60039;DHT22;45916;52.734;6.544;2022-12-07T15:38:19;4.60;99.90
60039;DHT22;45916;52.734;6.544;2022-12-07T15:40:48;4.60;99.90
60039;DHT22;45916;52.734;6.544;2022-12-07T15:43:14;4.60;99.90
60039;DHT22;45916;52.734;6.544;2022-12-07T15:45:59;4.50;99.90
60039;DHT22;45916;52.734;6.544;2022-12-07T15:48:24;4.50;99.90
60039;DHT22;45916;52.734;6.544;2022-12-07T15:50:50;4.50;99.90
60039;DHT22;45916;52.734;6.544;2022-12-07T15:53:16;4.40;99.90
60039;DHT22;45916;52.734;6.544;2022-12-07T15:55:42;4.40;99.90
60039;DHT22;45916;52.734;6.544;2022-12-07T15:58:07;4.30;99.90
60039;DHT22;45916;52.734;6.544;2022-12-07T16:00:33;4.30;99.90
60039;DHT22;45916;52.734;6.544;2022-12-07T16:02:59;4.20;99.90
60039;DHT22;45916;52.734;6.544;2022-12-07T16:05:24;4.10;99.90
60039;DHT22;45916;52.734;6.544;2022-12-07T16:07:50;4.10;99.90
60039;DHT22;45916;52.734;6.544;2022-12-07T16:10:16;4.10;99.90
60039;DHT22;45916;52.734;6.544;2022-12-07T16:12:41;4.10;99.90
60039;DHT22;45916;52.734;6.544;2022-12-07T16:15:08;4.10;99.90
60039;DHT22;45916;52.734;6.544;2022-12-07T16:17:34;4.00;99.90
60039;DHT22;45916;52.734;6.544;2022-12-07T16:19:59;3.90;99.90
60039;DHT22;45916;52.734;6.544;2022-12-07T16:22:25;3.80;99.90
60039;DHT22;45916;52.734;6.544;2022-12-07T16:24:51;3.70;99.90
60039;DHT22;45916;52.734;6.544;2022-12-07T16:27:16;3.70;99.90
60039;DHT22;45916;52.734;6.544;2022-12-07T16:29:42;3.60;99.90
60039;DHT22;45916;52.734;6.544;2022-12-07T16:32:08;3.70;99.90
60039;DHT22;45916;52.734;6.544;2022-12-07T16:34:33;3.70;99.90
60039;DHT22;45916;52.734;6.544;2022-12-07T16:36:59;3.70;99.90
60039;DHT22;45916;52.734;6.544;2022-12-07T16:39:25;3.70;99.90
60039;DHT22;45916;52.734;6.544;2022-12-07T16:41:50;3.80;99.90
60039;DHT22;45916;52.734;6.544;2022-12-07T16:44:18;3.80;99.90
60039;DHT22;45916;52.734;6.544;2022-12-07T16:46:43;3.80;99.90
60039;DHT22;45916;52.734;6.544;2022-12-07T16:49:13;3.90;99.90
60039;DHT22;45916;52.734;6.544;2022-12-07T16:51:39;3.90;99.90
60039;DHT22;45916;52.734;6.544;2022-12-07T16:54:06;3.90;99.90
60039;DHT22;45916;52.734;6.544;2022-12-07T16:56:32;4.00;99.90
60039;DHT22;45916;52.734;6.544;2022-12-07T16:58:58;4.10;99.90
60039;DHT22;45916;52.734;6.544;2022-12-07T17:01:24;4.10;99.90
60039;DHT22;45916;52.734;6.544;2022-12-07T17:03:52;4.20;99.90
60039;DHT22;45916;52.734;6.544;2022-12-07T17:06:21;4.10;99.90
60039;DHT22;45916;52.734;6.544;2022-12-07T17:08:47;4.10;99.90
60039;DHT22;45916;52.734;6.544;2022-12-07T17:11:19;4.10;99.90
60039;DHT22;45916;52.734;6.544;2022-12-07T17:13:45;4.10;99.90
60039;DHT22;45916;52.734;6.544;2022-12-07T17:16:29;4.10;99.90
60039;DHT22;45916;52.734;6.544;2022-12-07T17:18:55;4.00;99.90
60039;DHT22;45916;52.734;6.544;2022-12-07T17:21:21;4.00;99.90
60039;DHT22;45916;52.734;6.544;2022-12-07T17:23:48;4.00;99.90
60039;DHT22;45916;52.734;6.544;2022-12-07T17:26:20;3.90;99.90
60039;DHT22;45916;52.734;6.544;2022-12-07T17:28:46;3.80;99.90
60039;DHT22;45916;52.734;6.544;2022-12-07T17:31:14;3.80;99.90
60039;DHT22;45916;52.734;6.544;2022-12-07T17:33:40;3.70;99.90
60039;DHT22;45916;52.734;6.544;2022-12-07T17:36:27;3.60;99.90
60039;DHT22;45916;52.734;6.544;2022-12-07T17:38:53;3.60;99.90
60039;DHT22;45916;52.734;6.544;2022-12-07T17:41:24;3.50;99.90
60039;DHT22;45916;52.734;6.544;2022-12-07T17:44:11;3.50;99.90
60039;DHT22;45916;52.734;6.544;2022-12-07T17:46:37;3.60;99.90
60039;DHT22;45916;52.734;6.544;2022-12-07T17:49:03;3.60;99.90
60039;DHT22;45916;52.734;6.544;2022-12-07T17:51:29;3.60;99.90
60039;DHT22;45916;52.734;6.544;2022-12-07T17:54:13;3.60;99.90
60039;DHT22;45916;52.734;6.544;2022-12-07T17:56:39;3.70;99.90
60039;DHT22;45916;52.734;6.544;2022-12-07T17:59:05;3.70;99.90
60039;DHT22;45916;52.734;6.544;2022-12-07T18:01:32;3.80;99.90
60039;DHT22;45916;52.734;6.544;2022-12-07T18:03:57;3.80;99.90
60039;DHT22;45916;52.734;6.544;2022-12-07T18:06:23;3.70;99.90
60039;DHT22;45916;52.734;6.544;2022-12-07T18:08:49;3.80;99.90
60039;DHT22;45916;52.734;6.544;2022-12-07T18:11:15;3.70;99.90
60039;DHT22;45916;52.734;6.544;2022-12-07T18:13:41;3.70;99.90
60039;DHT22;45916;52.734;6.544;2022-12-07T18:16:16;3.60;99.90
60039;DHT22;45916;52.734;6.544;2022-12-07T18:18:43;3.60;99.90
60039;DHT22;45916;52.734;6.544;2022-12-07T18:21:15;3.50;99.90